GCGM/GMZ METAR and TAF weather

Enter ICAO airport designator
Station Type Date Time Source
GCGM METAR 2021/05/14 23:30 UTC NOAA

GCGM 142330Z AUTO VRB06KT 9999 -SHRA NSC 20/12 Q1018 RMK R09/VRB06G17KT ARP/36009G24KT 270V080


Station Type Date Time Source
GCGM Decoded METAR 2021/05/14 23:30 UTC NOAA

Station name not available
May 14, 2021 - 07:30 PM EDT / 2021.05.14 2330 UTC
Wind: Variable at 7 MPH (6 KT):0
Visibility: greater than 7 mile(s):0
Weather: light rain showers
Temperature: 68 F (20 C)
Dew Point: 53 F (12 C)
Relative Humidity: 59%
Pressure (altimeter): 30.06 in. Hg (1018 hPa)
ob: GCGM 142330Z AUTO VRB06KT 9999 -SHRA NSC 20/12 Q1018 RMK R09/VRB06G17KT ARP/36009G24KT 270V080
cycle: 23

Station Type Date Time Source
GCGM TAF 2021/05/14 21:00 UTC NOAA

TAF GCGM 142000Z 1421/1521 36009KT 9999 FEW020 TX26/1514Z TN17/1506Z
TEMPO 1421/1521 VRB15G25KT PROB40
TEMPO 1421/1502 36020G35KT

Example: see airport list